Главная страница
METAR-TAF:

METAR-TAF

Аэропорты :

Manassas Regional Airport (Harry P. Davis Field)

Manassas, Виргиния, США

широта: 38-43N, долгота: 077-31W, высота над уровнем моря: 59 м

Текущие метеонаблюдения

Эта сводка был подготовлена 24 минут назад, в 12:56 UTC
Ветер 5 Узел от юго-западный
Температура 24°C
Влажность 89%
Давление 1016 hPa
Видимость: 16.1 км
небольшая облачность на высоте 900 фута

METAR: KHEF 211256Z 22005KT 10SM FEW009 24/22 A2999 RMK AO2 SLP159 T02390222

Время: 09:20 (13:20 UTC)


TAF: отсутствует

Метеонаблюдения и прогнозы для более 4000 аэропортов (сводки METAR и TAF).

Имеющиеся станции представлены на карте желтыми и красными точками.

Чтобы увидеть название станции, наведите на нее мышь.

Затем щелкните, чтобы увидеть метеонаблюдения и метеопрогнозы.

Управление картой: чтобы увеличить масштаб, щелкните зеленые кнопки с черным крестиком; чтобы уменьшить масштаб, щелкните зеленую кнопку с тире; для просмотра соседних карт щелкайте зеленые стрелки.


METAR-TAF: